Time;durP1;ratioP1;P1;durP2;ratioP2;P2;SDS_P1;SDS_P2;PMS_P1;PMS_P2;Temp;Humidity;BMP_temperature;BMP_pressure;BME280_temperature;BME280_humidity;BME280_pressure;Samples;Min_cycle;Max_cycle;Signal;HPM_P1;HPM_P2
2022/06/28 00:00:00;;;;;;;103.13;11.65;;;;;;;;;;5045200;28;20037;-79
2022/06/28 00:02:25;;;;;;;15.40;9.98;;;;;;;;;;5043989;28;20037;-78
2022/06/28 00:04:51;;;;;;;19.95;11.00;;;;;;;;;;5043278;28;20025;-78
2022/06/28 00:07:16;;;;;;;17.45;11.05;;;;;;;;;;5044285;28;20022;-79
2022/06/28 00:09:41;;;;;;;14.27;10.57;;;;;;;;;;5024593;28;20025;-78
2022/06/28 00:12:07;;;;;;;22.60;10.55;;;;;;;;;;5043588;28;20425;-77
2022/06/28 00:17:16;;;;;;;;;;;;;;;;;;5042373;28;20048;-78
2022/06/28 00:19:41;;;;;;;16.10;9.50;;;;;;;;;;5044005;28;19913;-78
2022/06/28 00:22:07;;;;;;;14.40;10.35;;;;;;;;;;5025213;28;20025;-78
2022/06/28 00:24:32;;;;;;;16.15;9.98;;;;;;;;;;5043614;28;20026;-79
2022/06/28 00:26:57;;;;;;;16.13;9.68;;;;;;;;;;5044511;28;20111;-79
2022/06/28 00:29:22;;;;;;;77.20;11.00;;;;;;;;;;5042792;28;20037;-78
2022/06/28 00:31:48;;;;;;;24.70;10.57;;;;;;;;;;5026068;28;20048;-76
2022/06/28 00:34:13;;;;;;;21.45;11.27;;;;;;;;;;5043230;28;20265;-78
2022/06/28 00:36:38;;;;;;;16.42;10.77;;;;;;;;;;5044286;28;20025;-78
2022/06/28 00:39:04;;;;;;;14.15;10.40;;;;;;;;;;5044192;28;20033;-79
2022/06/28 00:41:34;;;;;;;14.85;10.05;;;;;;;;;;5027637;28;20018;-79
2022/06/28 00:44:00;;;;;;;19.75;10.30;;;;;;;;;;5043814;28;20021;-79
2022/06/28 00:46:25;;;;;;;11.77;9.25;;;;;;;;;;5044430;28;20060;-78
2022/06/28 00:48:50;;;;;;;15.65;8.80;;;;;;;;;;5043720;28;20097;-78
2022/06/28 00:51:17;;;;;;;19.88;9.30;;;;;;;;;;5044884;28;20095;-79
2022/06/28 00:53:42;;;;;;;24.73;9.98;;;;;;;;;;5025467;28;20048;-78
2022/06/28 00:56:07;;;;;;;15.57;8.65;;;;;;;;;;5043422;28;20037;-79
2022/06/28 00:58:33;;;;;;;20.03;8.73;;;;;;;;;;5046189;28;20033;-80
2022/06/28 01:00:58;;;;;;;57.40;9.47;;;;;;;;;;5043259;28;20251;-77
2022/06/28 01:03:24;;;;;;;13.70;8.27;;;;;;;;;;5044121;28;20255;-80
2022/06/28 01:05:51;;;;;;;10.85;8.10;;;;;;;;;;5045820;28;20084;-81
2022/06/28 01:08:17;;;;;;;14.63;8.50;;;;;;;;;;5044666;28;20398;-78
2022/06/28 01:10:42;;;;;;;28.38;8.20;;;;;;;;;;5042383;28;20037;-77
2022/06/28 01:13:09;;;;;;;20.63;9.52;;;;;;;;;;5041832;28;20032;-79
2022/06/28 01:15:36;;;;;;;13.35;8.90;;;;;;;;;;5045028;28;20028;-79
2022/06/28 01:18:03;;;;;;;15.55;8.65;;;;;;;;;;5042988;28;20025;-78
2022/06/28 01:20:29;;;;;;;15.25;9.52;;;;;;;;;;5042885;28;20021;-79
2022/06/28 01:22:54;;;;;;;13.75;9.02;;;;;;;;;;5042778;28;20444;-80
2022/06/28 01:25:21;;;;;;;16.10;9.70;;;;;;;;;;5043712;28;20088;-80
2022/06/28 01:27:47;;;;;;;19.75;9.70;;;;;;;;;;5043754;28;20029;-79
2022/06/28 01:30:13;;;;;;;16.08;9.07;;;;;;;;;;5025838;28;20025;-78
2022/06/28 01:32:40;;;;;;;24.08;9.55;;;;;;;;;;5042661;28;20029;-78
2022/06/28 01:35:06;;;;;;;17.63;9.75;;;;;;;;;;5042987;28;20449;-79
2022/06/28 01:37:31;;;;;;;33.50;10.10;;;;;;;;;;5044930;28;20025;-79
2022/06/28 01:39:57;;;;;;;19.17;10.82;;;;;;;;;;5026494;28;20033;-80
2022/06/28 01:42:22;;;;;;;16.30;10.40;;;;;;;;;;5045258;28;20063;-79
2022/06/28 01:44:49;;;;;;;17.30;10.88;;;;;;;;;;5026926;28;20021;-79
2022/06/28 01:47:17;;;;;;;44.72;10.98;;;;;;;;;;5045457;28;20091;-80
2022/06/28 01:49:42;;;;;;;38.97;11.30;;;;;;;;;;5045195;28;20025;-80
2022/06/28 01:52:08;;;;;;;57.22;11.30;;;;;;;;;;5027241;28;20025;-80
2022/06/28 01:54:33;;;;;;;26.97;12.30;;;;;;;;;;5043563;28;20025;-78
2022/06/28 01:57:01;;;;;;;38.23;13.60;;;;;;;;;;5026803;28;20258;-80
2022/06/28 01:59:26;;;;;;;25.52;12.60;;;;;;;;;;5045017;28;20637;-80
2022/06/28 02:01:51;;;;;;;26.70;13.60;;;;;;;;;;5026775;28;20033;-80
2022/06/28 02:04:22;;;;;;;28.27;13.17;;;;;;;;;;5042892;28;20030;-78
2022/06/28 02:06:47;;;;;;;28.33;14.13;;;;;;;;;;5043032;28;20593;-78
2022/06/28 02:09:13;;;;;;;27.55;14.60;;;;;;;;;;5043217;28;20029;-78
2022/06/28 02:11:38;;;;;;;25.63;13.65;;;;;;;;;;5043914;28;20036;-80
2022/06/28 02:14:04;;;;;;;22.60;12.65;;;;;;;;;;5043165;28;20032;-80
2022/06/28 02:16:32;;;;;;;28.05;14.88;;;;;;;;;;5042005;28;20040;-78
2022/06/28 02:18:57;;;;;;;27.35;13.95;;;;;;;;;;5026340;28;20025;-79
2022/06/28 02:21:23;;;;;;;26.43;14.60;;;;;;;;;;5043890;28;20060;-79
2022/06/28 02:23:48;;;;;;;23.23;14.38;;;;;;;;;;5041117;28;20282;-79
2022/06/28 02:26:13;;;;;;;23.73;14.98;;;;;;;;;;5041839;28;20559;-79
2022/06/28 02:28:40;;;;;;;28.20;14.03;;;;;;;;;;5042716;28;20053;-79
2022/06/28 02:31:09;;;;;;;25.00;14.73;;;;;;;;;;5043356;28;20263;-78
2022/06/28 02:33:35;;;;;;;27.50;15.20;;;;;;;;;;5044083;28;20095;-79
2022/06/28 02:41:28;;;;;;;24.88;15.15;;;;;;;;;;5045963;28;20116;-79
2022/06/28 02:43:53;;;;;;;27.07;14.77;;;;;;;;;;5029610;28;20104;-79
2022/06/28 02:46:18;;;;;;;32.77;15.93;;;;;;;;;;5045032;28;20266;-78
2022/06/28 02:48:45;;;;;;;25.87;16.30;;;;;;;;;;5043671;28;20266;-78
2022/06/28 02:51:10;;;;;;;27.92;15.35;;;;;;;;;;5027235;28;20262;-79
2022/06/28 02:53:35;;;;;;;29.17;16.27;;;;;;;;;;5046988;28;20437;-79
2022/06/28 02:56:00;;;;;;;27.40;16.33;;;;;;;;;;5046662;28;20612;-79
2022/06/28 02:58:26;;;;;;;30.52;16.38;;;;;;;;;;5045656;28;20025;-80
2022/06/28 03:00:51;;;;;;;26.13;15.50;;;;;;;;;;5045441;28;20431;-78
2022/06/28 03:03:16;;;;;;;30.08;16.73;;;;;;;;;;5043825;28;20032;-78
2022/06/28 03:05:42;;;;;;;29.30;16.60;;;;;;;;;;5044368;28;20021;-78
2022/06/28 03:08:08;;;;;;;23.37;15.33;;;;;;;;;;5026520;28;20117;-79
2022/06/28 03:10:33;;;;;;;27.15;15.23;;;;;;;;;;5043658;28;20257;-79
2022/06/28 03:12:58;;;;;;;23.73;14.37;;;;;;;;;;5044215;28;20030;-80
2022/06/28 03:15:23;;;;;;;26.47;15.67;;;;;;;;;;5045226;28;20278;-79
2022/06/28 03:17:49;;;;;;;26.70;15.68;;;;;;;;;;5043636;28;20298;-78
2022/06/28 03:20:14;;;;;;;25.17;15.80;;;;;;;;;;5026382;28;20026;-79
2022/06/28 03:22:39;;;;;;;24.90;15.43;;;;;;;;;;5026536;28;20037;-79
2022/06/28 03:25:06;;;;;;;24.63;15.68;;;;;;;;;;5044191;28;20039;-78
2022/06/28 03:27:31;;;;;;;22.23;15.35;;;;;;;;;;5024459;28;20025;-78
2022/06/28 03:29:56;;;;;;;20.67;13.15;;;;;;;;;;5041311;28;20124;-78
2022/06/28 03:32:21;;;;;;;25.47;13.17;;;;;;;;;;5044215;28;20030;-79
2022/06/28 03:34:47;;;;;;;24.55;14.43;;;;;;;;;;5042634;28;20255;-80
2022/06/28 03:37:12;;;;;;;21.63;13.63;;;;;;;;;;5042425;28;20467;-79
2022/06/28 03:39:37;;;;;;;16.33;12.55;;;;;;;;;;5042513;28;20286;-80
2022/06/28 03:42:03;;;;;;;15.53;11.07;;;;;;;;;;5042816;28;20045;-79
2022/06/28 03:44:28;;;;;;;14.98;10.70;;;;;;;;;;5044371;28;20255;-78
2022/06/28 03:46:53;;;;;;;15.40;11.20;;;;;;;;;;5043833;28;20078;-79
2022/06/28 03:49:18;;;;;;;13.57;11.03;;;;;;;;;;5026749;28;20025;-78
2022/06/28 03:51:46;;;;;;;17.03;10.50;;;;;;;;;;5044426;28;20285;-80
2022/06/28 03:54:11;;;;;;;14.88;11.10;;;;;;;;;;5044365;28;20262;-79
2022/06/28 03:56:36;;;;;;;13.70;10.47;;;;;;;;;;5044428;28;20040;-80
2022/06/28 03:59:01;;;;;;;14.55;11.57;;;;;;;;;;5045087;28;20282;-79
2022/06/28 04:01:26;;;;;;;14.93;11.80;;;;;;;;;;5045249;28;20021;-80
2022/06/28 04:03:52;;;;;;;15.63;11.97;;;;;;;;;;5046414;28;20262;-79
2022/06/28 04:06:17;;;;;;;17.23;12.53;;;;;;;;;;5045925;28;20254;-81
2022/06/28 04:08:42;;;;;;;15.13;12.65;;;;;;;;;;5044928;28;20286;-79
2022/06/28 04:11:16;;;;;;;19.63;14.10;;;;;;;;;;5045601;28;20029;-80
2022/06/28 04:13:45;;;;;;;19.17;13.80;;;;;;;;;;5047090;28;20778;-78
2022/06/28 04:16:10;;;;;;;18.85;14.52;;;;;;;;;;5046611;28;20041;-79
2022/06/28 04:18:35;;;;;;;18.83;14.68;;;;;;;;;;5044450;28;20047;-80
2022/06/28 04:21:01;;;;;;;22.30;15.88;;;;;;;;;;5046275;28;20037;-79
2022/06/28 04:23:27;;;;;;;18.02;14.55;;;;;;;;;;5027994;28;20071;-78
2022/06/28 04:25:52;;;;;;;17.60;13.85;;;;;;;;;;5045908;28;20025;-79
2022/06/28 04:28:18;;;;;;;16.75;13.70;;;;;;;;;;5045001;28;20032;-79
2022/06/28 04:30:43;;;;;;;20.30;14.20;;;;;;;;;;5046054;28;20089;-80
2022/06/28 04:33:08;;;;;;;17.87;13.43;;;;;;;;;;5045502;28;20367;-79
2022/06/28 04:35:34;;;;;;;20.83;15.30;;;;;;;;;;5045448;28;20631;-79
2022/06/28 04:38:01;;;;;;;21.52;15.13;;;;;;;;;;5045707;28;20121;-80
2022/06/28 04:40:26;;;;;;;17.95;14.68;;;;;;;;;;5028120;28;20021;-80
2022/06/28 04:42:51;;;;;;;21.08;14.93;;;;;;;;;;5045732;28;20429;-80
2022/06/28 04:45:16;;;;;;;18.83;14.40;;;;;;;;;;5044399;28;20017;-79
2022/06/28 04:47:42;;;;;;;19.80;14.23;;;;;;;;;;5044606;28;20274;-79
2022/06/28 04:50:08;;;;;;;20.55;14.48;;;;;;;;;;5045475;28;20255;-79
2022/06/28 04:52:34;;;;;;;20.90;15.23;;;;;;;;;;5044964;28;20024;-79
2022/06/28 04:54:59;;;;;;;21.40;15.13;;;;;;;;;;5044836;28;20021;-79
2022/06/28 04:57:24;;;;;;;22.27;15.03;;;;;;;;;;5045453;28;20032;-79
2022/06/28 04:59:49;;;;;;;23.52;15.23;;;;;;;;;;5046552;28;20275;-79
2022/06/28 05:02:15;;;;;;;20.53;15.20;;;;;;;;;;5044098;28;20025;-78
2022/06/28 05:04:40;;;;;;;16.77;13.60;;;;;;;;;;5045122;28;20250;-78
2022/06/28 05:07:05;;;;;;;18.10;14.57;;;;;;;;;;5045294;28;20342;-79
2022/06/28 05:09:30;;;;;;;20.63;15.50;;;;;;;;;;5046319;28;20259;-80
2022/06/28 05:11:55;;;;;;;17.90;14.30;;;;;;;;;;5044151;28;20262;-77
2022/06/28 05:14:21;;;;;;;19.67;15.53;;;;;;;;;;5041954;28;20251;-79
2022/06/28 05:16:46;;;;;;;18.97;14.13;;;;;;;;;;5040948;28;20262;-79
2022/06/28 05:19:11;;;;;;;21.58;14.55;;;;;;;;;;5040625;28;20282;-79
2022/06/28 05:21:37;;;;;;;18.80;14.70;;;;;;;;;;5040454;28;20021;-79
2022/06/28 05:24:03;;;;;;;19.13;14.13;;;;;;;;;;5039962;28;20025;-80
2022/06/28 05:26:28;;;;;;;18.98;13.75;;;;;;;;;;5040039;28;20025;-80
2022/06/28 05:28:53;;;;;;;17.40;12.65;;;;;;;;;;5039691;28;20033;-79
2022/06/28 05:31:18;;;;;;;16.07;12.50;;;;;;;;;;5039652;28;20025;-79
2022/06/28 05:33:44;;;;;;;19.67;13.10;;;;;;;;;;5038845;28;20259;-78
2022/06/28 05:36:09;;;;;;;17.87;12.43;;;;;;;;;;5021894;28;20262;-79
2022/06/28 05:38:34;;;;;;;17.23;13.10;;;;;;;;;;5039783;28;20262;-79
2022/06/28 05:40:59;;;;;;;16.37;13.30;;;;;;;;;;5040185;28;20274;-78
2022/06/28 05:43:25;;;;;;;14.67;11.97;;;;;;;;;;5039781;28;20273;-77
2022/06/28 05:45:50;;;;;;;14.65;11.85;;;;;;;;;;5021471;28;20266;-78
2022/06/28 05:48:15;;;;;;;15.10;11.93;;;;;;;;;;5038865;28;20049;-79
2022/06/28 05:50:40;;;;;;;17.43;12.50;;;;;;;;;;5040005;28;20346;-78
2022/06/28 05:53:06;;;;;;;16.50;11.83;;;;;;;;;;5038305;28;20671;-78
2022/06/28 05:55:31;;;;;;;14.50;11.35;;;;;;;;;;5039652;28;20259;-80
2022/06/28 05:57:56;;;;;;;15.90;11.38;;;;;;;;;;5039124;28;20087;-77
2022/06/28 06:00:22;;;;;;;13.82;11.63;;;;;;;;;;5021691;28;20022;-78
2022/06/28 06:02:47;;;;;;;15.27;10.98;;;;;;;;;;5039275;28;20032;-78
2022/06/28 06:05:12;;;;;;;15.03;10.57;;;;;;;;;;5022812;28;20026;-77
2022/06/28 06:07:38;;;;;;;16.13;10.35;;;;;;;;;;5024626;28;20263;-79
2022/06/28 06:10:03;;;;;;;14.37;11.03;;;;;;;;;;5045686;28;20033;-78
2022/06/28 06:12:29;;;;;;;14.18;10.35;;;;;;;;;;5045006;28;20265;-78
2022/06/28 06:14:54;;;;;;;13.40;10.65;;;;;;;;;;5025996;28;20033;-76
2022/06/28 06:17:20;;;;;;;11.68;9.18;;;;;;;;;;5044609;28;20044;-77
2022/06/28 06:19:45;;;;;;;13.50;10.27;;;;;;;;;;5043913;28;20429;-78
2022/06/28 06:22:11;;;;;;;12.57;9.80;;;;;;;;;;5044918;28;20029;-79
2022/06/28 06:24:36;;;;;;;12.50;9.73;;;;;;;;;;5044269;28;20033;-78
2022/06/28 06:27:01;;;;;;;14.93;9.20;;;;;;;;;;5045475;28;20037;-79
2022/06/28 06:29:28;;;;;;;13.55;9.75;;;;;;;;;;5045738;28;20021;-78
2022/06/28 06:31:53;;;;;;;14.38;10.27;;;;;;;;;;5044459;28;20500;-79
2022/06/28 06:34:18;;;;;;;14.32;10.18;;;;;;;;;;5045254;28;20116;-78
2022/06/28 06:36:46;;;;;;;13.97;10.67;;;;;;;;;;5044294;28;20025;-77
2022/06/28 06:39:12;;;;;;;19.83;10.27;;;;;;;;;;5042277;28;20278;-76
2022/06/28 06:41:38;;;;;;;15.00;10.50;;;;;;;;;;5043223;28;20040;-78
2022/06/28 06:44:03;;;;;;;14.13;10.52;;;;;;;;;;5044797;28;20390;-77
2022/06/28 06:46:29;;;;;;;16.83;11.20;;;;;;;;;;5045084;28;20109;-78
2022/06/28 06:48:54;;;;;;;15.45;10.55;;;;;;;;;;5044218;28;20053;-79
2022/06/28 06:51:19;;;;;;;18.57;11.20;;;;;;;;;;5044201;28;20029;-78
2022/06/28 06:53:45;;;;;;;16.92;11.38;;;;;;;;;;5026748;28;20259;-79
2022/06/28 06:56:10;;;;;;;15.98;11.32;;;;;;;;;;5027110;28;20549;-77
2022/06/28 06:58:36;;;;;;;16.92;11.05;;;;;;;;;;5044408;28;20025;-77
2022/06/28 07:01:01;;;;;;;16.27;10.30;;;;;;;;;;5044031;28;20029;-78
2022/06/28 07:03:26;;;;;;;15.73;10.37;;;;;;;;;;5044632;28;20296;-79
2022/06/28 07:05:52;;;;;;;19.03;10.30;;;;;;;;;;5042951;28;20251;-76
2022/06/28 07:08:17;;;;;;;14.20;10.25;;;;;;;;;;5043010;28;20263;-77
2022/06/28 07:10:42;;;;;;;13.90;9.03;;;;;;;;;;5039106;28;20017;-77
2022/06/28 07:13:07;;;;;;;13.00;9.47;;;;;;;;;;5037583;28;20263;-76
2022/06/28 07:15:33;;;;;;;15.00;9.80;;;;;;;;;;5037135;28;20338;-78
2022/06/28 07:17:58;;;;;;;14.18;9.63;;;;;;;;;;5036807;28;20037;-78
2022/06/28 07:20:23;;;;;;;15.30;8.88;;;;;;;;;;5036888;28;20022;-78
2022/06/28 07:22:48;;;;;;;12.90;8.85;;;;;;;;;;5037968;28;20441;-79
2022/06/28 07:25:14;;;;;;;14.98;9.13;;;;;;;;;;5021231;28;20021;-79
2022/06/28 07:27:39;;;;;;;11.77;8.63;;;;;;;;;;5022109;28;20025;-78
2022/06/28 07:30:05;;;;;;;11.32;8.20;;;;;;;;;;5023256;28;20014;-78
2022/06/28 07:32:31;;;;;;;13.70;8.57;;;;;;;;;;5040349;28;20445;-76
2022/06/28 07:34:56;;;;;;;11.98;7.68;;;;;;;;;;5044503;28;20029;-77
2022/06/28 07:37:22;;;;;;;12.90;8.02;;;;;;;;;;5044914;28;20036;-80
2022/06/28 07:39:47;;;;;;;14.20;8.80;;;;;;;;;;5045031;28;20028;-78
2022/06/28 07:42:12;;;;;;;12.73;8.38;;;;;;;;;;5044633;28;20116;-78
2022/06/28 07:44:37;;;;;;;13.57;8.47;;;;;;;;;;5042055;28;20036;-78
2022/06/28 07:47:03;;;;;;;10.57;8.35;;;;;;;;;;5039671;28;20703;-78
2022/06/28 07:52:33;;;;;;;11.95;7.60;;;;;;;;;;5040044;28;20052;-77
2022/06/28 07:52:35;;;;;;;9.82;7.50;;;;;;;;;;5038914;28;20130;-84
2022/06/28 07:55:04;;;;;;;10.23;8.05;;;;;;;;;;5041051;28;20022;-78
2022/06/28 07:57:29;;;;;;;12.43;8.48;;;;;;;;;;5042830;28;20032;-77
2022/06/28 07:59:54;;;;;;;10.60;7.93;;;;;;;;;;5040415;28;20021;-78
2022/06/28 08:02:20;;;;;;;10.43;8.07;;;;;;;;;;5040554;28;20022;-79
2022/06/28 08:04:46;;;;;;;14.00;8.60;;;;;;;;;;5041769;28;20257;-78
2022/06/28 08:07:12;;;;;;;14.77;8.65;;;;;;;;;;5042459;28;20032;-78
2022/06/28 08:09:38;;;;;;;10.93;8.40;;;;;;;;;;5043488;28;20077;-79
2022/06/28 08:12:04;;;;;;;12.63;9.32;;;;;;;;;;5040616;28;20024;-78
2022/06/28 08:14:29;;;;;;;12.25;9.20;;;;;;;;;;5036794;28;20029;-78
2022/06/28 08:16:55;;;;;;;16.75;9.57;;;;;;;;;;5020272;28;20079;-78
2022/06/28 08:19:20;;;;;;;15.10;9.73;;;;;;;;;;5039592;28;20030;-77
2022/06/28 08:21:47;;;;;;;13.55;9.13;;;;;;;;;;5037838;28;20028;-79
2022/06/28 08:24:13;;;;;;;14.35;9.07;;;;;;;;;;5039358;28;20036;-78
2022/06/28 08:26:42;;;;;;;11.85;8.63;;;;;;;;;;5036625;28;20021;-78
2022/06/28 08:29:09;;;;;;;12.48;8.15;;;;;;;;;;5037582;28;20028;-80
2022/06/28 08:31:34;;;;;;;13.20;9.00;;;;;;;;;;5038521;28;20028;-79
2022/06/28 08:33:59;;;;;;;11.57;9.75;;;;;;;;;;5021077;28;20025;-78
2022/06/28 08:36:24;;;;;;;14.97;9.50;;;;;;;;;;5040161;28;20033;-79
2022/06/28 08:38:49;;;;;;;10.90;8.80;;;;;;;;;;5040644;28;20262;-79
2022/06/28 08:41:15;;;;;;;13.23;9.27;;;;;;;;;;5041670;28;20305;-79
2022/06/28 08:43:41;;;;;;;13.97;9.13;;;;;;;;;;5039873;28;20269;-79
2022/06/28 08:50:26;;;;;;;12.52;9.23;;;;;;;;;;5052486;28;20502;-79
2022/06/28 08:53:51;;;;;;;15.70;9.35;;;;;;;;;;5059230;28;20166;-78
2022/06/28 09:02:52;;;;;;;14.80;8.90;;;;;;;;;;5062691;28;20079;-78
2022/06/28 09:05:20;;;;;;;13.43;8.63;;;;;;;;;;5115942;22;20501;-78
2022/06/28 09:08:40;;;;;;;10.45;9.02;;;;;;;;;;5039865;28;20376;-79
2022/06/28 09:11:19;;;;;;;11.30;7.93;;;;;;;;;;5040319;28;20025;-80
2022/06/28 09:14:48;;;;;;;12.77;9.63;;;;;;;;;;5040715;28;20487;-78
2022/06/28 09:17:43;;;;;;;13.18;9.15;;;;;;;;;;5020492;28;20442;-78
2022/06/28 09:21:11;;;;;;;11.80;9.30;;;;;;;;;;5020462;28;20026;-80
2022/06/28 09:24:17;;;;;;;14.57;9.07;;;;;;;;;;5019735;28;20036;-79
2022/06/28 09:26:42;;;;;;;10.93;8.65;;;;;;;;;;5019577;28;20037;-78
2022/06/28 09:29:46;;;;;;;11.30;8.32;;;;;;;;;;5016822;28;20033;-78
2022/06/28 09:43:33;;;;;;;11.52;8.60;;;;;;;;;;4906964;29;20113;-78
2022/06/28 09:46:10;;;;;;;10.70;8.43;;;;;;;;;;4938241;29;20043;-77
2022/06/28 09:49:15;;;;;;;12.30;8.38;;;;;;;;;;5013165;28;20034;-76
2022/06/28 09:51:49;;;;;;;12.73;8.77;;;;;;;;;;4991371;28;20046;-79
2022/06/28 09:59:25;;;;;;;12.70;9.13;;;;;;;;;;5036153;28;20445;-78
2022/06/28 10:01:57;;;;;;;12.98;9.57;;;;;;;;;;5040771;28;20033;-80
2022/06/28 10:04:30;;;;;;;17.60;9.60;;;;;;;;;;5037803;28;20084;-79
2022/06/28 10:06:55;;;;;;;10.85;8.80;;;;;;;;;;5022215;28;20033;-78
2022/06/28 10:09:58;;;;;;;10.13;8.80;;;;;;;;;;5038231;28;20032;-79
2022/06/28 10:16:27;;;;;;;10.50;7.72;;;;;;;;;;4996863;28;20045;-78
2022/06/28 10:18:57;;;;;;;10.70;7.70;;;;;;;;;;4920353;29;20091;-77
2022/06/28 10:21:48;;;;;;;11.43;8.30;;;;;;;;;;4938894;29;20082;-78
2022/06/28 10:24:51;;;;;;;11.50;8.50;;;;;;;;;;4939001;29;20032;-79
2022/06/28 10:27:19;;;;;;;9.23;8.30;;;;;;;;;;4922695;29;20024;-78
2022/06/28 10:33:38;;;;;;;9.80;8.00;;;;;;;;;;5040673;28;20029;-78
2022/06/28 10:36:13;;;;;;;10.18;7.00;;;;;;;;;;5016800;28;20550;-77
2022/06/28 10:39:28;;;;;;;10.43;6.88;;;;;;;;;;5021447;28;20418;-78
2022/06/28 10:41:59;;;;;;;9.75;6.95;;;;;;;;;;5037037;28;20398;-78
2022/06/28 10:44:44;;;;;;;8.30;7.22;;;;;;;;;;5037230;28;20088;-79
2022/06/28 10:47:12;;;;;;;8.95;7.18;;;;;;;;;;5041456;28;20029;-79
2022/06/28 10:49:56;;;;;;;10.68;6.90;;;;;;;;;;5039699;28;20494;-78
2022/06/28 10:52:30;;;;;;;11.43;6.88;;;;;;;;;;5039674;28;20437;-80
2022/06/28 10:54:59;;;;;;;9.68;5.13;;;;;;;;;;5040483;28;20035;-79
2022/06/28 10:57:32;;;;;;;8.93;6.38;;;;;;;;;;5044402;28;20088;-80
2022/06/28 11:00:03;;;;;;;;;;;;;;;;;;5042541;28;20371;-80
2022/06/28 11:03:06;;;;;;;5.50;4.45;;;;;;;;;;5041865;28;19916;-78
2022/06/28 11:05:48;;;;;;;5.68;4.88;;;;;;;;;;4961091;28;20086;-78
2022/06/28 11:08:44;;;;;;;6.80;4.78;;;;;;;;;;4959953;28;20039;-80
2022/06/28 11:11:10;;;;;;;6.88;5.05;;;;;;;;;;5023604;28;20095;-80
2022/06/28 11:13:38;;;;;;;7.28;4.85;;;;;;;;;;5024870;28;20018;-78
2022/06/28 11:16:04;;;;;;;6.30;4.10;;;;;;;;;;5042323;28;20031;-79
2022/06/28 11:18:30;;;;;;;6.35;3.67;;;;;;;;;;5023481;28;20033;-78
2022/06/28 11:20:56;;;;;;;4.30;3.72;;;;;;;;;;5044320;28;20028;-79
2022/06/28 11:23:27;;;;;;;6.03;3.88;;;;;;;;;;5042701;28;20029;-79
2022/06/28 11:28:53;;;;;;;4.32;3.42;;;;;;;;;;5042394;28;20059;-78
2022/06/28 11:31:19;;;;;;;5.82;3.72;;;;;;;;;;5042646;28;20027;-79
2022/06/28 11:33:44;;;;;;;8.27;3.70;;;;;;;;;;5042820;28;20085;-79
2022/06/28 11:36:20;;;;;;;5.38;3.70;;;;;;;;;;5041130;28;20057;-79
2022/06/28 11:38:45;;;;;;;7.60;3.55;;;;;;;;;;5022925;28;20057;-79
2022/06/28 11:41:10;;;;;;;6.33;3.13;;;;;;;;;;5041804;28;20072;-78
2022/06/28 11:43:36;;;;;;;5.43;3.10;;;;;;;;;;5044643;28;20029;-77
2022/06/28 11:46:03;;;;;;;5.00;3.38;;;;;;;;;;5024369;28;20048;-78
2022/06/28 11:48:29;;;;;;;4.38;3.30;;;;;;;;;;5023624;28;20044;-78
2022/06/28 11:50:57;;;;;;;4.70;3.22;;;;;;;;;;5041661;28;20032;-79
2022/06/28 11:53:24;;;;;;;6.22;2.90;;;;;;;;;;5024802;28;20056;-79
2022/06/28 11:55:51;;;;;;;4.78;3.17;;;;;;;;;;5043961;28;20025;-79
2022/06/28 11:58:19;;;;;;;3.47;3.15;;;;;;;;;;5042330;28;20041;-79
2022/06/28 12:01:07;;;;;;;4.82;3.05;;;;;;;;;;5042461;28;20048;-79
2022/06/28 12:03:34;;;;;;;4.28;3.08;;;;;;;;;;5040778;28;20030;-79
2022/06/28 12:06:01;;;;;;;5.85;3.15;;;;;;;;;;5022680;28;20367;-80
2022/06/28 12:09:06;;;;;;;4.22;3.17;;;;;;;;;;5041415;28;20088;-78
2022/06/28 12:11:47;;;;;;;4.18;2.60;;;;;;;;;;5000223;28;20113;-79
2022/06/28 12:14:32;;;;;;;3.70;2.70;;;;;;;;;;5042512;28;20029;-79
2022/06/28 12:17:01;;;;;;;6.47;2.88;;;;;;;;;;5041630;28;20037;-78
2022/06/28 12:19:38;;;;;;;3.13;2.80;;;;;;;;;;5040372;28;20052;-78
2022/06/28 12:22:17;;;;;;;5.57;2.80;;;;;;;;;;5041388;28;20025;-79
2022/06/28 12:24:55;;;;;;;3.20;2.78;;;;;;;;;;5042139;28;20140;-79
2022/06/28 12:27:23;;;;;;;2.92;2.60;;;;;;;;;;5042723;28;20398;-78
2022/06/28 12:29:50;;;;;;;3.55;2.42;;;;;;;;;;5025212;28;20418;-78
2022/06/28 12:32:16;;;;;;;5.60;2.80;;;;;;;;;;5041366;28;20100;-80
2022/06/28 12:34:41;;;;;;;3.08;2.45;;;;;;;;;;5042320;28;20022;-77
2022/06/28 12:37:07;;;;;;;6.50;2.63;;;;;;;;;;5023784;28;20032;-79
2022/06/28 12:39:33;;;;;;;5.60;2.90;;;;;;;;;;5043786;28;20108;-79
2022/06/28 12:41:58;;;;;;;5.20;2.73;;;;;;;;;;5043191;28;20054;-81
2022/06/28 12:44:23;;;;;;;3.80;2.40;;;;;;;;;;5040315;28;20266;-78
2022/06/28 12:46:51;;;;;;;4.97;2.58;;;;;;;;;;5040948;28;20728;-78
2022/06/28 12:49:17;;;;;;;2.75;2.42;;;;;;;;;;5021484;28;20018;-78
2022/06/28 12:51:42;;;;;;;4.97;2.38;;;;;;;;;;5038148;28;20548;-79
2022/06/28 12:54:10;;;;;;;5.40;2.60;;;;;;;;;;5022787;28;20067;-79
2022/06/28 12:56:35;;;;;;;3.25;2.38;;;;;;;;;;5022317;28;20251;-78
2022/06/28 12:59:00;;;;;;;4.13;2.40;;;;;;;;;;5038898;28;20040;-79
2022/06/28 13:01:26;;;;;;;3.53;2.53;;;;;;;;;;5039460;28;20273;-79
2022/06/28 13:03:52;;;;;;;5.85;2.72;;;;;;;;;;5022905;28;20282;-78
2022/06/28 13:06:17;;;;;;;3.83;2.57;;;;;;;;;;5042300;28;20025;-79
2022/06/28 13:08:43;;;;;;;4.15;2.70;;;;;;;;;;5041395;28;20091;-79
2022/06/28 13:11:08;;;;;;;3.95;2.60;;;;;;;;;;5041793;28;20056;-79
2022/06/28 13:13:33;;;;;;;3.63;2.70;;;;;;;;;;5041918;28;20033;-79
2022/06/28 13:16:00;;;;;;;5.75;2.90;;;;;;;;;;5023174;28;20159;-78
2022/06/28 13:18:26;;;;;;;3.70;2.30;;;;;;;;;;5040366;28;20559;-78
2022/06/28 13:20:51;;;;;;;5.13;2.70;;;;;;;;;;5039723;28;20052;-79
2022/06/28 13:23:18;;;;;;;5.72;2.60;;;;;;;;;;5022176;28;20041;-78
2022/06/28 13:25:43;;;;;;;4.65;2.60;;;;;;;;;;5038771;28;20025;-79
2022/06/28 13:28:08;;;;;;;4.93;2.60;;;;;;;;;;5040815;28;20382;-79
2022/06/28 13:30:36;;;;;;;3.20;2.42;;;;;;;;;;5041129;28;20021;-78
2022/06/28 13:33:03;;;;;;;2.75;2.13;;;;;;;;;;5043214;28;20026;-81
2022/06/28 13:35:28;;;;;;;3.28;2.30;;;;;;;;;;5040841;28;20055;-79
2022/06/28 13:37:53;;;;;;;3.17;2.47;;;;;;;;;;5023288;28;20025;-79
2022/06/28 13:40:19;;;;;;;3.33;2.40;;;;;;;;;;5041072;28;20100;-79
2022/06/28 13:42:44;;;;;;;2.60;2.35;;;;;;;;;;5041201;28;20270;-79
2022/06/28 13:45:09;;;;;;;4.57;2.80;;;;;;;;;;5040311;28;20497;-79
2022/06/28 13:47:36;;;;;;;3.10;2.38;;;;;;;;;;5040935;28;20047;-78
2022/06/28 13:50:02;;;;;;;4.00;2.33;;;;;;;;;;5040541;28;20021;-80
2022/06/28 13:52:30;;;;;;;3.28;2.40;;;;;;;;;;5022380;28;20032;-79
2022/06/28 13:54:56;;;;;;;3.28;2.47;;;;;;;;;;5039391;28;20033;-79
2022/06/28 13:57:25;;;;;;;4.50;2.60;;;;;;;;;;5038421;28;20036;-77
2022/06/28 13:59:51;;;;;;;3.70;2.20;;;;;;;;;;5041456;28;20048;-79
2022/06/28 14:02:16;;;;;;;2.80;2.20;;;;;;;;;;5022085;28;20083;-77
2022/06/28 14:04:41;;;;;;;4.22;2.47;;;;;;;;;;5039535;28;20029;-77
2022/06/28 14:07:07;;;;;;;3.00;2.23;;;;;;;;;;5040685;28;20111;-78
2022/06/28 14:09:32;;;;;;;3.30;2.10;;;;;;;;;;5040447;28;20308;-79
2022/06/28 14:11:57;;;;;;;3.43;2.30;;;;;;;;;;5040529;28;20262;-78
2022/06/28 14:14:23;;;;;;;4.47;2.47;;;;;;;;;;5022167;28;20290;-78
2022/06/28 14:16:48;;;;;;;3.30;2.40;;;;;;;;;;5041238;28;20025;-78
2022/06/28 14:19:14;;;;;;;4.05;2.08;;;;;;;;;;5041444;28;20487;-78
2022/06/28 14:21:39;;;;;;;5.18;2.10;;;;;;;;;;5040836;28;20030;-79
2022/06/28 14:24:04;;;;;;;3.60;2.33;;;;;;;;;;5039339;28;20032;-77
2022/06/28 14:26:30;;;;;;;4.13;2.10;;;;;;;;;;5038568;28;20267;-78
2022/06/28 14:28:56;;;;;;;2.85;2.00;;;;;;;;;;5022314;28;20083;-78
2022/06/28 14:31:23;;;;;;;3.10;2.28;;;;;;;;;;5043273;28;20022;-78
2022/06/28 14:33:48;;;;;;;2.28;2.08;;;;;;;;;;5024757;28;20061;-77
2022/06/28 14:36:13;;;;;;;3.03;2.10;;;;;;;;;;5044433;28;20024;-78
2022/06/28 14:38:39;;;;;;;2.50;2.00;;;;;;;;;;5044423;28;20271;-78
2022/06/28 14:41:04;;;;;;;3.87;2.10;;;;;;;;;;5042286;28;20055;-78
2022/06/28 14:43:29;;;;;;;6.47;2.30;;;;;;;;;;5042398;28;20116;-78
2022/06/28 14:45:54;;;;;;;2.70;2.00;;;;;;;;;;5042368;28;20091;-77
2022/06/28 14:48:21;;;;;;;4.67;2.30;;;;;;;;;;5041191;28;20285;-78
2022/06/28 14:50:46;;;;;;;3.15;2.38;;;;;;;;;;5024684;28;20329;-79
2022/06/28 14:53:12;;;;;;;5.03;2.30;;;;;;;;;;5046374;28;20396;-79
2022/06/28 14:55:39;;;;;;;4.63;2.20;;;;;;;;;;5044923;28;20274;-78
2022/06/28 14:58:05;;;;;;;2.60;2.17;;;;;;;;;;5043040;28;20030;-78
2022/06/28 15:00:33;;;;;;;4.03;2.38;;;;;;;;;;5044360;28;20022;-79
2022/06/28 15:02:59;;;;;;;3.25;2.10;;;;;;;;;;5043623;28;20057;-78
2022/06/28 15:05:24;;;;;;;3.87;2.40;;;;;;;;;;5043443;28;20051;-79
2022/06/28 15:07:49;;;;;;;2.93;2.30;;;;;;;;;;5044226;28;20022;-78
2022/06/28 15:10:15;;;;;;;3.38;2.13;;;;;;;;;;5024645;28;20147;-78
2022/06/28 15:12:41;;;;;;;2.25;1.98;;;;;;;;;;5041109;28;20033;-80
2022/06/28 15:15:06;;;;;;;3.55;2.10;;;;;;;;;;5024130;28;20037;-80
2022/06/28 15:17:32;;;;;;;4.63;2.10;;;;;;;;;;5043061;28;20029;-78
2022/06/28 15:19:57;;;;;;;2.20;2.00;;;;;;;;;;5043401;28;20013;-77